Weather at Tnuvot Ultralight Airfield

Public forecast

Using degrees Celsius for public forecast. Weather courtesy of forecast.io.

Closest aviation weather report (METAR) to Tnuvot Ultralight Airfield

Closest report is Ben Gurion International Airport, 18.4 nm (34.2 km) SSW.

2024/02/24 08:50 (retrieved 33 minutes ago)

LLBG 240850Z 09007KT CAVOK 18/10 Q1019 NOSIG RMK BKN110

Closest aviation forecast (TAF) to Tnuvot Ultralight Airfield

Closest forecast is Herzliya Airport, 10.6 nm (19.6 km) SW.

2024/02/24 06:00 (retrieved 3 hours ago)

TAF LLHZ 240504Z 2406/2506 VRB03KT 8000 NSC PROB40 TEMPO 2406/2409 5000 -RA BR SCT030 BKN080 BECMG 2409/2411 33010KT CAVOK BECMG 2415/2417 VRB04KT SCT025 PROB40 TEMPO 2419/2506 7000 BKN025 TX19/2412Z TN13/2504Z